Time;durP1;ratioP1;P1;durP2;ratioP2;P2;SDS_P1;SDS_P2;PMS_P1;PMS_P2;Temp;Humidity;BMP_temperature;BMP_pressure;BME280_temperature;BME280_humidity;BME280_pressure;Samples;Min_cycle;Max_cycle;Signal;HPM_P1;HPM_P2
2021/11/29 00:01:13;;;;;;;3.83;1.65;;;;;;;18.58;36.80;100285.16;5091085;28;20071;-67
2021/11/29 00:03:38;;;;;;;3.85;1.50;;;;;;;18.53;36.68;100285.59;5091750;28;20020;-68
2021/11/29 00:06:04;;;;;;;3.65;1.45;;;;;;;18.51;36.49;100295.47;5091944;28;20115;-67
2021/11/29 00:08:29;;;;;;;4.28;1.50;;;;;;;18.51;36.96;100294.63;5090907;28;20032;-68
2021/11/29 00:10:55;;;;;;;3.63;1.58;;;;;;;18.49;36.38;100300.06;5091763;28;20052;-68
2021/11/29 00:13:21;;;;;;;3.63;1.30;;;;;;;18.47;36.79;100300.19;5094850;28;20017;-68
2021/11/29 00:15:47;;;;;;;2.78;1.38;;;;;;;18.43;36.83;100296.16;5094361;28;20129;-67
2021/11/29 00:18:12;;;;;;;3.83;1.48;;;;;;;18.41;36.60;100295.47;5095510;28;20498;-68
2021/11/29 00:20:42;;;;;;;3.38;1.40;;;;;;;18.39;36.50;100302.69;5094483;28;20020;-68
2021/11/29 00:23:08;;;;;;;4.35;1.50;;;;;;;18.39;36.82;100299.22;5095323;28;20040;-68
2021/11/29 00:25:33;;;;;;;3.25;1.20;;;;;;;18.37;36.35;100304.63;5094839;28;20036;-67
2021/11/29 00:27:58;;;;;;;3.10;1.33;;;;;;;18.36;36.86;100304.75;5094409;28;20065;-68
2021/11/29 00:30:24;;;;;;;3.20;1.30;;;;;;;18.33;36.54;100305.88;5094977;28;20125;-67
2021/11/29 00:32:49;;;;;;;4.07;1.23;;;;;;;18.32;36.32;100309.50;5095270;28;20020;-68
2021/11/29 00:35:15;;;;;;;3.08;1.10;;;;;;;18.29;36.55;100310.63;5094226;28;20114;-67
2021/11/29 00:37:41;;;;;;;2.55;1.20;;;;;;;18.26;36.67;100313.53;5094721;28;20032;-67
2021/11/29 00:40:09;;;;;;;2.67;1.10;;;;;;;18.25;36.22;100314.50;5094897;28;20087;-68
2021/11/29 00:42:35;;;;;;;2.60;1.17;;;;;;;18.23;36.45;100312.94;5093670;28;20032;-68
2021/11/29 00:45:00;;;;;;;3.58;1.30;;;;;;;18.21;36.49;100313.09;5095146;28;20030;-68
2021/11/29 00:47:25;;;;;;;3.22;1.17;;;;;;;18.21;36.20;100314.91;5094667;28;20395;-67
2021/11/29 00:49:50;;;;;;;4.13;1.20;;;;;;;18.19;36.48;100315.03;5094163;28;20061;-67
2021/11/29 00:52:16;;;;;;;2.63;1.10;;;;;;;18.17;36.42;100324.06;5094782;28;20028;-67
2021/11/29 00:54:41;;;;;;;2.47;1.17;;;;;;;18.15;36.40;100321.56;5094541;28;20036;-67
2021/11/29 00:57:06;;;;;;;2.95;1.20;;;;;;;18.13;36.23;100332.25;5093868;28;20055;-68
2021/11/29 00:59:35;;;;;;;3.03;1.10;;;;;;;18.11;36.50;100328.91;5094105;28;20543;-68
2021/11/29 01:02:00;;;;;;;2.45;1.00;;;;;;;18.09;36.18;100333.50;5094281;28;20522;-68
2021/11/29 01:04:25;;;;;;;3.53;1.02;;;;;;;18.09;36.23;100327.41;5093390;28;20032;-68
2021/11/29 01:06:51;;;;;;;2.67;1.02;;;;;;;18.06;36.18;100330.31;5094462;28;20038;-67
2021/11/29 01:09:16;;;;;;;2.38;1.00;;;;;;;18.03;36.41;100330.56;5094405;28;20085;-68
2021/11/29 01:11:41;;;;;;;1.70;0.90;;;;;;;18.03;36.42;100331.41;5093182;28;20062;-68
2021/11/29 01:14:07;;;;;;;2.42;0.80;;;;;;;18.02;36.47;100339.44;5094874;28;20059;-67
2021/11/29 01:16:32;;;;;;;2.90;0.93;;;;;;;17.99;36.42;100332.66;5094311;28;20048;-68
2021/11/29 01:18:57;;;;;;;2.53;0.88;;;;;;;17.97;36.31;100339.84;5094575;28;20027;-70
2021/11/29 01:21:23;;;;;;;1.83;0.90;;;;;;;17.97;36.06;100341.66;5095414;28;20039;-68
2021/11/29 01:23:49;;;;;;;2.58;1.10;;;;;;;17.95;36.53;100347.91;5093953;28;20475;-68
2021/11/29 01:26:14;;;;;;;2.42;1.00;;;;;;;17.93;36.23;100344.56;5094706;28;20024;-68
2021/11/29 01:28:40;;;;;;;2.60;1.00;;;;;;;17.97;36.37;100352.22;5095187;28;20028;-68
2021/11/29 01:31:06;;;;;;;2.60;0.90;;;;;;;17.97;35.99;100352.22;5094978;28;20063;-68
2021/11/29 01:33:32;;;;;;;2.28;0.90;;;;;;;17.97;36.30;100350.41;5096370;28;20451;-68
2021/11/29 01:35:57;;;;;;;1.95;0.82;;;;;;;17.98;36.37;100354.72;5097917;28;20024;-67
2021/11/29 01:38:22;;;;;;;2.38;1.08;;;;;;;18.00;36.28;100362.47;5095118;28;20024;-68
2021/11/29 01:40:48;;;;;;;2.25;1.02;;;;;;;17.99;35.96;100366.94;5096892;28;20028;-68
2021/11/29 01:43:19;;;;;;;2.03;0.80;;;;;;;17.99;35.74;100372.22;5097636;28;20020;-68
2021/11/29 01:45:55;;;;;;;3.03;1.25;;;;;;;18.01;35.79;100379.94;5097354;28;20035;-68
2021/11/29 01:48:22;;;;;;;1.67;0.70;;;;;;;18.01;36.12;100377.31;5096475;28;20467;-68
2021/11/29 01:50:51;;;;;;;2.65;0.90;;;;;;;18.01;35.67;100375.53;5097185;28;20035;-67
2021/11/29 01:53:18;;;;;;;3.00;0.90;;;;;;;18.00;35.85;100386.22;5095952;28;20023;-68
2021/11/29 01:55:44;;;;;;;2.55;0.98;;;;;;;18.00;36.00;100381.75;5095908;28;20337;-68
2021/11/29 01:58:10;;;;;;;1.17;0.60;;;;;;;18.00;35.74;100384.41;5093897;28;20028;-69
2021/11/29 02:00:40;;;;;;;2.05;0.85;;;;;;;17.99;35.83;100380.13;5093431;28;20035;-68
2021/11/29 02:03:06;;;;;;;2.10;0.80;;;;;;;17.97;35.65;100373.31;5093485;28;20085;-68
2021/11/29 02:05:32;;;;;;;1.83;0.80;;;;;;;17.99;35.89;100380.13;5092734;28;20040;-68
2021/11/29 02:07:57;;;;;;;1.80;0.80;;;;;;;17.98;35.76;100383.72;5092496;28;20024;-68
2021/11/29 02:10:25;;;;;;;1.58;0.70;;;;;;;17.98;35.50;100378.44;5093220;28;20153;-68
2021/11/29 02:12:50;;;;;;;2.15;0.82;;;;;;;17.98;35.54;100372.34;5093182;28;20489;-70
2021/11/29 02:15:17;;;;;;;2.15;0.80;;;;;;;17.97;35.52;100373.31;5092286;28;20471;-69
2021/11/29 02:17:43;;;;;;;2.08;0.80;;;;;;;17.95;35.63;100371.63;5092652;28;20055;-68
2021/11/29 02:20:10;;;;;;;2.03;0.70;;;;;;;17.96;35.62;100377.75;5093432;28;20020;-68
2021/11/29 02:22:35;;;;;;;1.83;0.70;;;;;;;17.96;35.73;100380.38;5092683;28;20036;-69
2021/11/29 02:25:01;;;;;;;1.90;0.98;;;;;;;17.96;35.95;100383.03;5093421;28;20023;-69
2021/11/29 02:27:27;;;;;;;2.40;0.90;;;;;;;17.96;35.84;100380.38;5092397;28;20040;-68
2021/11/29 02:29:56;;;;;;;2.15;0.80;;;;;;;17.96;35.94;100383.03;5092729;28;20027;-68
2021/11/29 02:32:22;;;;;;;2.22;0.80;;;;;;;17.96;35.50;100372.47;5092586;28;20028;-68
2021/11/29 02:34:48;;;;;;;2.22;0.80;;;;;;;17.98;35.56;100374.97;5091294;28;20035;-67
2021/11/29 02:37:13;;;;;;;1.90;0.70;;;;;;;17.97;35.38;100373.31;5092253;28;20093;-68
2021/11/29 02:39:41;;;;;;;1.50;0.70;;;;;;;17.95;35.61;100374.25;5092219;28;20031;-67
2021/11/29 02:42:10;;;;;;;0.90;0.55;;;;;;;17.97;35.68;100379.41;5091883;28;20030;-68
2021/11/29 02:44:35;;;;;;;0.82;0.50;;;;;;;17.95;35.76;100368.16;5092445;28;20021;-68
2021/11/29 02:47:01;;;;;;;2.27;0.63;;;;;;;17.96;35.75;100372.47;5092415;28;20042;-68
2021/11/29 02:49:27;;;;;;;1.95;0.80;;;;;;;17.96;35.62;100372.47;5091283;28;20280;-67
2021/11/29 02:51:56;;;;;;;2.42;0.68;;;;;;;17.95;35.62;100383.97;5092204;28;20035;-67
2021/11/29 02:54:26;;;;;;;2.15;0.75;;;;;;;17.94;35.80;100385.78;5092482;28;20024;-67
2021/11/29 02:56:55;;;;;;;1.88;0.70;;;;;;;17.96;35.41;100398.84;5091469;28;20478;-69
2021/11/29 02:59:23;;;;;;;1.15;0.50;;;;;;;17.96;35.80;100396.19;5092469;28;20032;-67
2021/11/29 03:01:52;;;;;;;1.92;0.60;;;;;;;17.96;35.48;100404.13;5092219;28;20031;-68
2021/11/29 03:04:19;;;;;;;2.15;0.82;;;;;;;17.97;35.29;100408.41;5091438;28;20032;-67
2021/11/29 03:06:44;;;;;;;2.05;0.50;;;;;;;17.98;35.73;100396.91;5091614;28;20031;-68
2021/11/29 03:09:09;;;;;;;2.15;0.63;;;;;;;17.97;35.36;100391.75;5092312;28;20032;-68
2021/11/29 03:11:35;;;;;;;2.13;0.70;;;;;;;18.00;35.55;100402.03;5091051;28;20027;-67
2021/11/29 03:14:01;;;;;;;1.95;0.70;;;;;;;17.98;35.37;100396.06;5091849;28;20035;-67
2021/11/29 03:16:27;;;;;;;1.17;0.60;;;;;;;17.99;35.53;100400.34;5090932;28;20044;-67
2021/11/29 03:18:52;;;;;;;1.30;0.55;;;;;;;17.99;35.60;100403.84;5091663;28;20039;-68
2021/11/29 03:21:20;;;;;;;1.40;0.60;;;;;;;17.99;35.19;100408.25;5092380;28;20149;-68
2021/11/29 03:23:49;;;;;;;2.28;0.70;;;;;;;17.98;35.20;100404.81;5091167;28;20032;-68
2021/11/29 03:26:18;;;;;;;1.05;0.50;;;;;;;17.98;35.57;100402.16;5092165;28;20017;-68
2021/11/29 03:28:46;;;;;;;1.35;0.60;;;;;;;17.99;35.40;100401.22;5091699;28;20428;-68
2021/11/29 03:31:12;;;;;;;1.52;0.50;;;;;;;17.98;35.60;100401.34;5091219;28;20020;-68
2021/11/29 03:33:39;;;;;;;1.23;0.50;;;;;;;18.01;35.24;100398.41;5091954;28;20032;-67
2021/11/29 03:36:05;;;;;;;1.30;0.57;;;;;;;18.01;34.90;100394.00;5092157;28;20091;-69
2021/11/29 03:38:31;;;;;;;1.45;0.50;;;;;;;18.00;35.09;100408.13;5090870;28;20095;-67
2021/11/29 03:40:58;;;;;;;1.38;0.65;;;;;;;18.01;35.40;100414.22;5091798;28;20024;-68
2021/11/29 03:43:23;;;;;;;2.15;0.70;;;;;;;18.02;35.29;100410.63;5092005;28;20098;-68
2021/11/29 03:45:49;;;;;;;0.63;0.43;;;;;;;18.01;35.38;100408.97;5091018;28;20463;-68
2021/11/29 03:48:14;;;;;;;0.95;0.50;;;;;;;17.99;35.31;100403.84;5095217;28;20065;-69
2021/11/29 03:50:40;;;;;;;1.10;0.55;;;;;;;17.99;35.07;100398.56;5095344;28;20490;-67
2021/11/29 03:53:05;;;;;;;1.13;0.40;;;;;;;17.99;35.04;100397.72;5094871;28;20021;-68
2021/11/29 03:55:30;;;;;;;0.30;0.30;;;;;;;18.00;35.29;100408.13;5095400;28;20031;-68
2021/11/29 03:57:56;;;;;;;1.73;0.50;;;;;;;17.99;35.42;100408.25;5095708;28;20031;-68
2021/11/29 04:00:22;;;;;;;1.10;0.40;;;;;;;17.99;35.45;100409.13;5094850;28;20024;-69
2021/11/29 04:02:47;;;;;;;1.02;0.60;;;;;;;18.00;35.17;100412.59;5095576;28;20503;-68
2021/11/29 04:05:13;;;;;;;1.00;0.50;;;;;;;18.00;35.38;100408.13;5095650;28;20475;-67
2021/11/29 04:07:39;;;;;;;1.55;0.50;;;;;;;17.97;35.25;100403.13;5094676;28;20039;-68
2021/11/29 04:10:05;;;;;;;1.33;0.60;;;;;;;18.00;35.23;100412.59;5095602;28;20099;-68
2021/11/29 04:12:30;;;;;;;1.45;0.50;;;;;;;17.99;35.14;100418.81;5095506;28;20032;-68
2021/11/29 04:14:56;;;;;;;0.63;0.50;;;;;;;17.97;35.15;100418.94;5094991;28;20065;-69
2021/11/29 04:17:21;;;;;;;1.00;0.40;;;;;;;18.00;35.30;100431.03;5095726;28;20068;-68
2021/11/29 04:19:47;;;;;;;0.65;0.40;;;;;;;17.99;35.27;100438.13;5095836;28;20527;-68
2021/11/29 04:22:13;;;;;;;0.88;0.50;;;;;;;17.99;35.40;100439.91;5096431;28;20077;-68
2021/11/29 04:24:40;;;;;;;0.63;0.40;;;;;;;18.00;35.32;100445.03;5097321;28;20089;-68
2021/11/29 04:27:06;;;;;;;1.02;0.40;;;;;;;18.02;35.37;100447.56;5098499;28;20059;-69
2021/11/29 04:29:36;;;;;;;0.98;0.40;;;;;;;18.01;35.16;100453.78;5097864;28;20028;-68
2021/11/29 04:32:01;;;;;;;1.75;0.40;;;;;;;18.02;35.40;100460.72;5098627;28;20164;-68
2021/11/29 04:34:26;;;;;;;0.70;0.40;;;;;;;18.00;35.18;100458.22;5096844;28;20095;-68
2021/11/29 04:36:52;;;;;;;0.68;0.40;;;;;;;17.99;35.00;100458.38;5095551;28;20044;-68
2021/11/29 04:39:17;;;;;;;0.93;0.38;;;;;;;17.99;35.16;100453.09;5095602;28;20047;-68
2021/11/29 04:41:44;;;;;;;0.55;0.40;;;;;;;18.00;34.90;100462.69;5094532;28;20042;-67
2021/11/29 04:44:10;;;;;;;0.85;0.47;;;;;;;18.02;35.19;100472.09;5095413;28;20059;-67
2021/11/29 04:46:36;;;;;;;1.00;0.40;;;;;;;18.02;34.89;100473.91;5095559;28;20444;-67
2021/11/29 04:49:02;;;;;;;1.38;0.43;;;;;;;18.00;35.33;100473.22;5095289;28;20027;-68
2021/11/29 04:51:27;;;;;;;0.82;0.40;;;;;;;18.00;35.19;100467.94;5095215;28;20069;-67
2021/11/29 04:53:53;;;;;;;1.08;0.50;;;;;;;18.03;35.24;100480.88;5095602;28;20545;-67
2021/11/29 04:56:19;;;;;;;1.08;0.40;;;;;;;18.01;35.31;100485.41;5094657;28;20483;-68
2021/11/29 04:58:44;;;;;;;0.60;0.30;;;;;;;18.02;35.08;100489.75;5096200;28;20039;-68
2021/11/29 05:01:11;;;;;;;1.27;0.50;;;;;;;18.01;35.32;100491.56;5096783;28;20023;-68
2021/11/29 05:03:36;;;;;;;0.75;0.30;;;;;;;18.01;35.00;100493.34;5094634;28;20024;-68
2021/11/29 05:06:02;;;;;;;0.80;0.30;;;;;;;18.02;35.07;100490.56;5095179;28;20113;-67
2021/11/29 05:08:27;;;;;;;1.40;0.40;;;;;;;18.02;34.90;100497.66;5094597;28;20421;-67
2021/11/29 05:10:53;;;;;;;1.08;0.30;;;;;;;18.00;35.03;100499.59;5093812;28;20123;-67
2021/11/29 05:13:18;;;;;;;0.82;0.32;;;;;;;18.02;35.18;100513.47;5094695;28;20024;-67
2021/11/29 05:15:44;;;;;;;0.77;0.35;;;;;;;18.01;35.53;100511.78;5094411;28;20048;-67
2021/11/29 05:18:09;;;;;;;0.57;0.30;;;;;;;18.01;35.23;100506.50;5094526;28;20351;-67
2021/11/29 05:20:35;;;;;;;1.25;0.40;;;;;;;18.02;35.52;100510.84;5094395;28;20036;-68
2021/11/29 05:23:00;;;;;;;0.43;0.32;;;;;;;18.00;35.23;100504.88;5094192;28;20105;-68
2021/11/29 05:25:26;;;;;;;0.30;0.30;;;;;;;18.02;35.38;100516.94;5093869;28;20047;-67
2021/11/29 05:27:51;;;;;;;0.77;0.30;;;;;;;18.03;35.42;100523.06;5094025;28;20055;-68
2021/11/29 05:30:16;;;;;;;0.82;0.30;;;;;;;18.01;35.40;100520.56;5093436;28;20028;-68
2021/11/29 05:32:42;;;;;;;1.20;0.40;;;;;;;18.03;35.21;100528.34;5093679;28;20032;-67
2021/11/29 05:35:07;;;;;;;0.60;0.30;;;;;;;18.02;34.95;100522.22;5094399;28;20038;-67
2021/11/29 05:37:32;;;;;;;0.93;0.40;;;;;;;18.02;34.92;100521.38;5093059;28;20752;-67
2021/11/29 05:39:58;;;;;;;1.07;0.40;;;;;;;18.02;35.09;100529.28;5094027;28;20059;-67
2021/11/29 05:42:23;;;;;;;1.27;0.40;;;;;;;18.01;35.39;100530.25;5093931;28;20292;-68
2021/11/29 05:44:50;;;;;;;1.65;0.57;;;;;;;18.03;35.62;100544.16;5093407;28;20024;-68
2021/11/29 05:47:20;;;;;;;0.82;0.30;;;;;;;18.03;35.23;100544.16;5094172;28;20081;-67
2021/11/29 05:49:46;;;;;;;0.70;0.30;;;;;;;18.02;35.63;100548.56;5093773;28;20073;-68
2021/11/29 05:52:11;;;;;;;0.88;0.30;;;;;;;18.03;35.54;100550.25;5092958;28;20122;-68
2021/11/29 05:54:36;;;;;;;1.25;0.40;;;;;;;18.04;35.38;100540.53;5093621;28;20028;-68
2021/11/29 05:57:02;;;;;;;0.73;0.30;;;;;;;18.03;35.21;100542.34;5093750;28;20138;-68
2021/11/29 05:59:28;;;;;;;1.67;0.43;;;;;;;18.03;35.00;100544.97;5092810;28;20028;-68
2021/11/29 06:01:53;;;;;;;0.52;0.30;;;;;;;18.02;35.01;100542.47;5093622;28;20024;-68
2021/11/29 06:04:18;;;;;;;0.57;0.30;;;;;;;18.03;35.42;100552.06;5093516;28;20046;-68
2021/11/29 06:06:44;;;;;;;1.92;0.30;;;;;;;18.04;36.32;100541.38;5092300;28;20111;-68
2021/11/29 06:09:10;;;;;;;1.75;0.40;;;;;;;18.05;36.91;100540.41;5092947;28;20103;-68
2021/11/29 06:11:35;;;;;;;1.15;0.30;;;;;;;18.07;37.45;100537.63;5092809;28;20101;-67
2021/11/29 06:14:00;;;;;;;0.75;0.30;;;;;;;18.08;36.99;100541.97;5092281;28;20051;-67
2021/11/29 06:16:26;;;;;;;0.35;0.28;;;;;;;18.09;37.42;100546.28;5092499;28;20068;-68
2021/11/29 06:18:51;;;;;;;0.45;0.30;;;;;;;18.10;37.60;100545.28;5093077;28;20036;-68
2021/11/29 06:21:16;;;;;;;0.52;0.30;;;;;;;18.12;37.47;100548.66;5092258;28;20102;-67
2021/11/29 06:23:42;;;;;;;0.95;0.30;;;;;;;18.12;37.41;100553.91;5092500;28;20432;-68
2021/11/29 06:26:07;;;;;;;1.27;0.30;;;;;;;18.15;37.31;100544.91;5092777;28;20024;-68
2021/11/29 06:28:32;;;;;;;0.40;0.32;;;;;;;18.16;37.17;100549.22;5091585;28;20467;-68
2021/11/29 06:30:58;;;;;;;0.77;0.30;;;;;;;18.18;37.62;100560.47;5092472;28;20024;-68
2021/11/29 06:33:24;;;;;;;1.38;0.30;;;;;;;18.18;37.38;100561.28;5091836;28;20032;-67
2021/11/29 06:35:51;;;;;;;1.30;0.40;;;;;;;18.19;37.43;100556.88;5092913;28;20024;-68
2021/11/29 06:38:17;;;;;;;0.30;0.20;;;;;;;18.20;37.03;100550.59;5092757;28;20067;-68
2021/11/29 06:40:49;;;;;;;0.35;0.25;;;;;;;18.20;36.98;100562.00;5091579;28;20720;-68
2021/11/29 06:43:14;;;;;;;1.05;0.40;;;;;;;18.22;37.46;100561.88;5092662;28;20519;-68
2021/11/29 06:45:40;;;;;;;0.75;0.30;;;;;;;18.21;37.32;100555.75;5092471;28;20047;-67
2021/11/29 06:48:05;;;;;;;1.17;0.40;;;;;;;18.22;37.06;100565.34;5091935;28;20039;-68
2021/11/29 06:50:30;;;;;;;0.90;0.30;;;;;;;18.22;37.31;100562.69;5092347;28;20461;-68
2021/11/29 06:52:56;;;;;;;1.15;0.30;;;;;;;18.24;36.89;100568.66;5092544;28;20032;-67
2021/11/29 06:55:21;;;;;;;1.02;0.40;;;;;;;18.24;37.05;100563.41;5091631;28;20074;-67
2021/11/29 06:57:48;;;;;;;0.80;0.40;;;;;;;18.23;37.11;100569.66;5092289;28;20028;-67
2021/11/29 07:00:16;;;;;;;1.05;0.30;;;;;;;18.26;37.31;100576.44;5092477;28;20109;-68
2021/11/29 07:02:43;;;;;;;0.50;0.30;;;;;;;18.26;37.45;100581.72;5091521;28;20033;-68
2021/11/29 07:05:10;;;;;;;0.52;0.30;;;;;;;18.27;37.37;100583.41;5092664;28;20068;-67
2021/11/29 07:07:35;;;;;;;0.63;0.30;;;;;;;18.26;37.29;100582.59;5092242;28;20024;-68
2021/11/29 07:10:01;;;;;;;1.00;0.30;;;;;;;18.28;36.99;100595.66;5091504;28;20020;-68
2021/11/29 07:12:26;;;;;;;0.30;0.30;;;;;;;18.28;37.29;100601.75;5092225;28;20040;-68
2021/11/29 07:14:52;;;;;;;1.60;0.40;;;;;;;18.28;37.39;100601.75;5092584;28;20028;-68
2021/11/29 07:17:17;;;;;;;0.68;0.40;;;;;;;18.30;36.98;100604.25;5091539;28;20319;-68
2021/11/29 07:19:50;;;;;;;1.77;0.40;;;;;;;18.29;37.25;100600.78;5092123;28;20099;-68
2021/11/29 07:22:15;;;;;;;0.95;0.40;;;;;;;18.30;37.18;100606.88;5094301;28;20024;-68
2021/11/29 07:24:40;;;;;;;0.40;0.30;;;;;;;18.32;37.31;100604.94;5095361;28;20471;-68
2021/11/29 07:27:07;;;;;;;0.95;0.38;;;;;;;18.33;37.07;100605.81;5096459;28;20017;-68
2021/11/29 07:29:32;;;;;;;1.48;0.30;;;;;;;18.33;37.44;100600.53;5096160;28;20028;-68
2021/11/29 07:31:57;;;;;;;1.50;0.40;;;;;;;18.34;37.23;100600.41;5095471;28;20161;-68
2021/11/29 07:34:23;;;;;;;0.90;0.32;;;;;;;18.34;37.09;100605.69;5096368;28;20101;-68
2021/11/29 07:36:48;;;;;;;0.32;0.30;;;;;;;18.35;37.14;100609.13;5095430;28;20391;-68
2021/11/29 07:39:13;;;;;;;3.20;0.33;;;;;;;18.34;37.20;100616.22;5096078;28;20024;-69
2021/11/29 07:41:39;;;;;;;0.63;0.40;;;;;;;18.34;36.66;100612.72;5095872;28;20731;-68
2021/11/29 07:44:04;;;;;;;0.85;0.40;;;;;;;18.33;36.26;100619.00;5094314;28;20490;-69
2021/11/29 07:46:30;;;;;;;0.73;0.40;;;;;;;18.35;36.91;100620.53;5095822;28;20028;-67
2021/11/29 07:48:56;;;;;;;1.00;0.40;;;;;;;18.37;36.24;100628.31;5095845;28;20024;-68
2021/11/29 07:51:24;;;;;;;1.08;0.40;;;;;;;18.37;36.07;100629.13;5095244;28;20069;-66
2021/11/29 07:53:50;;;;;;;0.73;0.40;;;;;;;18.38;36.64;100630.81;5096233;28;20070;-64
2021/11/29 07:56:15;;;;;;;0.85;0.30;;;;;;;18.40;36.75;100626.22;5096007;28;20449;-66
2021/11/29 07:58:40;;;;;;;1.65;0.50;;;;;;;18.42;36.91;100634.00;5094877;28;20497;-64
2021/11/29 08:01:06;;;;;;;1.58;0.50;;;;;;;18.43;36.79;100633.88;5095876;28;20040;-65
2021/11/29 08:03:31;;;;;;;0.73;0.40;;;;;;;18.46;36.89;100635.44;5095591;28;20024;-68
2021/11/29 08:05:57;;;;;;;0.73;0.40;;;;;;;18.48;36.78;100631.72;5094810;28;20437;-65
2021/11/29 08:08:22;;;;;;;0.63;0.32;;;;;;;18.48;36.36;100644.91;5095485;28;20024;-64
2021/11/29 08:10:47;;;;;;;1.30;0.40;;;;;;;18.52;36.56;100645.47;5095074;28;20395;-64
2021/11/29 08:13:15;;;;;;;0.98;0.30;;;;;;;18.53;36.70;100641.84;5094709;28;20081;-65
2021/11/29 08:15:40;;;;;;;0.90;0.55;;;;;;;18.53;36.77;100644.47;5095047;28;20051;-70
2021/11/29 08:18:07;;;;;;;1.73;0.70;;;;;;;18.53;36.08;100646.28;5095683;28;20016;-66
2021/11/29 08:20:34;;;;;;;1.75;0.50;;;;;;;18.51;36.53;100648.22;5094481;28;20046;-64
2021/11/29 08:22:59;;;;;;;3.70;0.40;;;;;;;18.52;36.72;100640.19;5095297;28;20074;-64
2021/11/29 08:25:25;;;;;;;1.55;0.50;;;;;;;18.52;36.49;100645.47;5096314;28;20028;-67
2021/11/29 08:27:53;;;;;;;1.15;0.47;;;;;;;18.62;36.36;100650.78;5097568;28;20028;-64
2021/11/29 08:30:21;;;;;;;1.30;0.50;;;;;;;18.79;36.38;100655.44;5095987;28;20448;-63
2021/11/29 08:32:46;;;;;;;1.90;0.50;;;;;;;18.92;35.72;100651.75;5095459;28;20067;-64
2021/11/29 08:35:14;;;;;;;1.10;0.50;;;;;;;19.03;35.64;100662.22;5096308;28;20056;-63
2021/11/29 08:37:46;;;;;;;1.17;0.50;;;;;;;19.12;35.55;100658.78;5096184;28;20016;-64
2021/11/29 08:40:16;;;;;;;1.73;0.55;;;;;;;19.23;35.55;100663.06;5094934;28;20024;-64
2021/11/29 08:42:42;;;;;;;1.80;0.40;;;;;;;19.31;35.37;100659.75;5095025;28;20050;-66
2021/11/29 08:45:07;;;;;;;0.75;0.52;;;;;;;19.37;35.20;100667.97;5096727;28;20058;-64
2021/11/29 08:47:32;;;;;;;2.50;0.50;;;;;;;19.45;35.32;100677.84;5094974;28;20440;-66
2021/11/29 08:49:58;;;;;;;2.65;0.73;;;;;;;19.52;35.37;100678.16;5096160;28;20039;-64
2021/11/29 08:52:26;;;;;;;1.75;0.50;;;;;;;19.56;35.05;100671.63;5095643;28;20176;-64
2021/11/29 08:54:52;;;;;;;1.65;0.50;;;;;;;19.58;35.12;100688.16;5094766;28;20019;-65
2021/11/29 08:57:20;;;;;;;1.60;0.43;;;;;;;19.61;34.98;100695.00;5095104;28;20305;-65
2021/11/29 08:59:45;;;;;;;1.40;0.50;;;;;;;19.65;34.69;100691.13;5094634;28;20024;-67
2021/11/29 09:02:11;;;;;;;2.47;0.52;;;;;;;19.63;35.09;100693.03;5093739;28;20086;-68
2021/11/29 09:04:37;;;;;;;1.45;0.50;;;;;;;19.62;35.04;100692.22;5094372;28;20063;-63
2021/11/29 09:07:03;;;;;;;1.73;0.50;;;;;;;19.66;34.77;100698.06;5094604;28;20132;-66
2021/11/29 09:09:31;;;;;;;1.63;0.55;;;;;;;19.65;35.17;100704.31;5093716;28;20028;-66
2021/11/29 09:11:58;;;;;;;1.42;0.50;;;;;;;19.56;35.02;100700.69;5094202;28;20301;-66
2021/11/29 09:14:23;;;;;;;2.45;0.70;;;;;;;19.46;35.27;100697.22;5094109;28;20020;-64
2021/11/29 09:16:49;;;;;;;1.88;0.63;;;;;;;19.38;35.79;100701.34;5093329;28;20150;-65
2021/11/29 09:19:14;;;;;;;2.58;0.73;;;;;;;19.30;35.82;100708.31;5094215;28;20062;-65
2021/11/29 09:21:40;;;;;;;1.75;0.60;;;;;;;19.24;35.87;100704.38;5094076;28;20023;-67
2021/11/29 09:24:05;;;;;;;0.98;0.57;;;;;;;19.20;35.91;100719.69;5093397;28;20042;-66
2021/11/29 09:26:31;;;;;;;2.17;0.50;;;;;;;19.16;35.91;100726.19;5093710;28;20020;-66
2021/11/29 09:28:57;;;;;;;2.55;0.52;;;;;;;19.15;36.01;100728.97;5094079;28;20024;-66
2021/11/29 09:31:24;;;;;;;0.90;0.40;;;;;;;19.11;36.36;100735.50;5093381;28;20485;-65
2021/11/29 09:33:49;;;;;;;1.08;0.40;;;;;;;19.09;36.19;100743.56;5094179;28;20032;-65
2021/11/29 09:36:16;;;;;;;2.47;0.70;;;;;;;19.17;35.97;100733.16;5093714;28;20054;-64
2021/11/29 09:38:41;;;;;;;1.60;0.55;;;;;;;19.26;35.64;100728.84;5093812;28;20348;-65
2021/11/29 09:41:08;;;;;;;2.90;0.60;;;;;;;19.36;35.63;100734.19;5094135;28;20035;-65
2021/11/29 09:43:34;;;;;;;2.25;0.52;;;;;;;19.43;35.40;100737.94;5096465;28;20039;-65
2021/11/29 09:46:00;;;;;;;1.75;0.50;;;;;;;19.52;35.23;100744.25;5094280;28;20024;-65
2021/11/29 09:48:26;;;;;;;1.27;0.50;;;;;;;19.54;35.28;100744.94;5093466;28;20080;-65
2021/11/29 09:50:54;;;;;;;1.75;0.60;;;;;;;19.56;34.89;100737.69;5093637;28;20072;-68
2021/11/29 09:53:21;;;;;;;1.45;0.60;;;;;;;19.60;35.29;100746.19;5094611;28;20106;-68
2021/11/29 09:55:47;;;;;;;1.98;0.57;;;;;;;19.62;35.16;100747.72;5094010;28;20039;-65
2021/11/29 09:58:13;;;;;;;1.73;0.63;;;;;;;19.66;34.97;100745.63;5093200;28;20479;-67
2021/11/29 10:00:45;;;;;;;1.85;0.50;;;;;;;19.69;35.02;100759.44;5093687;28;20103;-66
2021/11/29 10:03:10;;;;;;;1.00;0.50;;;;;;;19.65;35.12;100744.81;5093690;28;20056;-66
2021/11/29 10:05:36;;;;;;;1.35;0.50;;;;;;;19.68;35.20;100751.66;5092779;28;20063;-71
2021/11/29 10:08:24;;;;;;;3.55;0.80;;;;;;;19.63;35.45;100748.56;5093972;28;20055;-66
2021/11/29 10:10:52;;;;;;;2.50;0.60;;;;;;;19.62;35.06;100758.31;5093959;28;20325;-68
2021/11/29 10:13:19;;;;;;;1.80;0.65;;;;;;;19.64;35.32;100760.81;5093427;28;20089;-66
2021/11/29 10:15:45;;;;;;;1.85;0.70;;;;;;;19.62;35.39;100765.41;5092942;28;20107;-68
2021/11/29 10:18:26;;;;;;;3.60;0.80;;;;;;;19.59;35.24;100766.50;5093863;28;20498;-68
2021/11/29 10:21:08;;;;;;;1.65;0.60;;;;;;;19.55;35.34;100759.81;5093395;28;20032;-68
2021/11/29 10:23:37;;;;;;;2.03;0.60;;;;;;;19.51;33.98;100763.72;5092964;28;20024;-67
2021/11/29 10:26:10;;;;;;;3.03;0.80;;;;;;;19.44;35.40;100765.22;5092776;28;20074;-66
2021/11/29 10:28:38;;;;;;;2.75;0.65;;;;;;;19.44;35.63;100773.13;5094481;28;20035;-67
2021/11/29 10:31:03;;;;;;;1.80;0.60;;;;;;;19.48;35.30;100774.53;5093363;28;20123;-63
2021/11/29 10:33:30;;;;;;;1.37;0.50;;;;;;;19.51;35.33;100774.28;5092179;28;20055;-66
2021/11/29 10:36:07;;;;;;;2.55;0.57;;;;;;;19.53;35.46;100778.44;5093152;28;20024;-66
2021/11/29 10:38:33;;;;;;;3.13;0.60;;;;;;;19.56;35.26;100772.06;5092696;28;20540;-66
2021/11/29 10:40:58;;;;;;;1.88;0.75;;;;;;;19.59;35.28;100779.72;5092386;28;20047;-65
2021/11/29 10:43:36;;;;;;;4.03;0.80;;;;;;;19.58;35.69;100780.69;5092549;28;20016;-64
2021/11/29 10:46:17;;;;;;;3.85;0.60;;;;;;;19.51;36.10;100784.84;5092876;28;20020;-65
2021/11/29 10:48:42;;;;;;;2.97;0.98;;;;;;;19.45;36.12;100786.22;5091466;28;20040;-65
2021/11/29 10:51:11;;;;;;;2.53;0.80;;;;;;;19.41;35.82;100784.84;5092342;28;20038;-65
2021/11/29 10:53:57;;;;;;;2.80;0.68;;;;;;;19.34;36.10;100781.91;5091699;28;20035;-66
2021/11/29 10:56:24;;;;;;;2.92;0.70;;;;;;;19.30;36.15;100787.56;5092411;28;20062;-66
2021/11/29 10:58:52;;;;;;;2.38;0.50;;;;;;;19.26;36.00;100781.69;5092212;28;20498;-66
2021/11/29 11:01:32;;;;;;;1.88;0.50;;;;;;;19.24;36.03;100780.19;5091626;28;20028;-65
2021/11/29 11:03:58;;;;;;;2.53;0.60;;;;;;;19.20;36.08;100790.16;5092580;28;20055;-66
2021/11/29 11:06:39;;;;;;;2.30;0.60;;;;;;;19.16;36.46;100778.19;5092485;28;20024;-64
2021/11/29 11:09:13;;;;;;;2.88;0.60;;;;;;;19.13;36.34;100786.38;5091576;28;20491;-65
2021/11/29 11:11:43;;;;;;;2.65;0.80;;;;;;;19.12;36.57;100795.28;5092081;28;20106;-66
2021/11/29 11:14:16;;;;;;;2.63;0.57;;;;;;;19.10;36.35;100795.41;5092628;28;20039;-65
2021/11/29 11:16:56;;;;;;;2.97;0.80;;;;;;;19.07;36.54;100795.66;5090942;28;20040;-65
2021/11/29 11:19:24;;;;;;;3.70;0.60;;;;;;;19.07;36.66;100798.31;5092584;28;20020;-65
2021/11/29 11:21:52;;;;;;;2.28;0.65;;;;;;;19.07;36.60;100798.31;5092583;28;20036;-64